sensor_id;sensor_type;location;lat;lon;timestamp;P1;durP1;ratioP1;P2;durP2;ratioP2
35128;SDS011;21301;43.626;10.580;2023-04-24T00:00:19;9.80;;;5.43;;
35128;SDS011;21301;43.626;10.580;2023-04-24T00:02:45;11.98;;;4.82;;
35128;SDS011;21301;43.626;10.580;2023-04-24T00:05:15;16.35;;;6.43;;
35128;SDS011;21301;43.626;10.580;2023-04-24T00:07:43;10.77;;;5.75;;
35128;SDS011;21301;43.626;10.580;2023-04-24T00:10:10;11.48;;;5.63;;
35128;SDS011;21301;43.626;10.580;2023-04-24T00:12:36;9.77;;;5.63;;
35128;SDS011;21301;43.626;10.580;2023-04-24T00:15:03;13.60;;;5.68;;
35128;SDS011;21301;43.626;10.580;2023-04-24T00:17:29;11.80;;;4.88;;
35128;SDS011;21301;43.626;10.580;2023-04-24T00:19:55;7.35;;;4.80;;
35128;SDS011;21301;43.626;10.580;2023-04-24T00:22:27;9.70;;;5.00;;
35128;SDS011;21301;43.626;10.580;2023-04-24T00:24:53;14.57;;;6.18;;
35128;SDS011;21301;43.626;10.580;2023-04-24T00:27:19;9.82;;;4.25;;
35128;SDS011;21301;43.626;10.580;2023-04-24T00:29:46;9.77;;;5.28;;
35128;SDS011;21301;43.626;10.580;2023-04-24T00:32:12;10.60;;;5.75;;
35128;SDS011;21301;43.626;10.580;2023-04-24T00:34:39;12.23;;;5.85;;
35128;SDS011;21301;43.626;10.580;2023-04-24T00:37:05;8.82;;;5.13;;
35128;SDS011;21301;43.626;10.580;2023-04-24T00:39:31;9.23;;;5.68;;
35128;SDS011;21301;43.626;10.580;2023-04-24T00:41:57;12.25;;;5.95;;
35128;SDS011;21301;43.626;10.580;2023-04-24T00:44:24;17.23;;;5.88;;
35128;SDS011;21301;43.626;10.580;2023-04-24T00:46:50;10.30;;;5.68;;
35128;SDS011;21301;43.626;10.580;2023-04-24T00:49:19;14.25;;;6.93;;
35128;SDS011;21301;43.626;10.580;2023-04-24T00:51:49;15.75;;;5.00;;
35128;SDS011;21301;43.626;10.580;2023-04-24T00:54:16;11.65;;;4.60;;
35128;SDS011;21301;43.626;10.580;2023-04-24T00:56:43;13.38;;;5.63;;
35128;SDS011;21301;43.626;10.580;2023-04-24T00:59:11;9.18;;;4.95;;
35128;SDS011;21301;43.626;10.580;2023-04-24T01:01:38;7.47;;;4.55;;
35128;SDS011;21301;43.626;10.580;2023-04-24T01:04:07;8.98;;;4.07;;
35128;SDS011;21301;43.626;10.580;2023-04-24T01:06:38;13.82;;;5.25;;
35128;SDS011;21301;43.626;10.580;2023-04-24T01:09:05;11.30;;;4.63;;
35128;SDS011;21301;43.626;10.580;2023-04-24T01:11:33;14.88;;;5.18;;
35128;SDS011;21301;43.626;10.580;2023-04-24T01:13:59;9.55;;;4.43;;
35128;SDS011;21301;43.626;10.580;2023-04-24T01:16:25;10.52;;;4.95;;
35128;SDS011;21301;43.626;10.580;2023-04-24T01:18:53;9.05;;;5.82;;
35128;SDS011;21301;43.626;10.580;2023-04-24T01:21:18;11.00;;;5.30;;
35128;SDS011;21301;43.626;10.580;2023-04-24T01:23:46;15.38;;;5.80;;
35128;SDS011;21301;43.626;10.580;2023-04-24T01:26:17;7.40;;;4.78;;
35128;SDS011;21301;43.626;10.580;2023-04-24T01:28:45;10.40;;;5.45;;
35128;SDS011;21301;43.626;10.580;2023-04-24T01:31:11;16.73;;;5.15;;
35128;SDS011;21301;43.626;10.580;2023-04-24T01:33:37;11.38;;;5.25;;
35128;SDS011;21301;43.626;10.580;2023-04-24T01:36:03;11.15;;;6.20;;
35128;SDS011;21301;43.626;10.580;2023-04-24T01:38:30;12.70;;;5.45;;
35128;SDS011;21301;43.626;10.580;2023-04-24T01:40:58;12.60;;;4.93;;
35128;SDS011;21301;43.626;10.580;2023-04-24T01:43:25;10.88;;;4.78;;
35128;SDS011;21301;43.626;10.580;2023-04-24T01:45:50;9.75;;;4.85;;
35128;SDS011;21301;43.626;10.580;2023-04-24T01:48:16;8.68;;;4.88;;
35128;SDS011;21301;43.626;10.580;2023-04-24T01:50:42;9.40;;;4.68;;
35128;SDS011;21301;43.626;10.580;2023-04-24T01:53:10;12.32;;;5.15;;
35128;SDS011;21301;43.626;10.580;2023-04-24T01:55:36;12.07;;;5.10;;
35128;SDS011;21301;43.626;10.580;2023-04-24T01:58:02;11.13;;;5.28;;
35128;SDS011;21301;43.626;10.580;2023-04-24T02:00:29;12.82;;;5.05;;
35128;SDS011;21301;43.626;10.580;2023-04-24T02:02:55;15.20;;;5.95;;
35128;SDS011;21301;43.626;10.580;2023-04-24T02:05:21;10.25;;;5.38;;
35128;SDS011;21301;43.626;10.580;2023-04-24T02:07:46;11.20;;;5.80;;
35128;SDS011;21301;43.626;10.580;2023-04-24T02:10:12;10.07;;;5.53;;
35128;SDS011;21301;43.626;10.580;2023-04-24T02:12:41;10.88;;;5.22;;
35128;SDS011;21301;43.626;10.580;2023-04-24T02:15:07;12.00;;;5.00;;
35128;SDS011;21301;43.626;10.580;2023-04-24T02:17:36;11.02;;;5.15;;
35128;SDS011;21301;43.626;10.580;2023-04-24T02:20:03;11.77;;;5.30;;
35128;SDS011;21301;43.626;10.580;2023-04-24T02:22:30;8.13;;;4.65;;
35128;SDS011;21301;43.626;10.580;2023-04-24T02:24:56;11.02;;;4.90;;
35128;SDS011;21301;43.626;10.580;2023-04-24T02:27:22;17.65;;;5.40;;
35128;SDS011;21301;43.626;10.580;2023-04-24T02:29:47;25.77;;;6.00;;
35128;SDS011;21301;43.626;10.580;2023-04-24T02:32:13;9.82;;;5.57;;
35128;SDS011;21301;43.626;10.580;2023-04-24T02:34:42;9.73;;;5.40;;
35128;SDS011;21301;43.626;10.580;2023-04-24T02:37:08;12.77;;;5.75;;
35128;SDS011;21301;43.626;10.580;2023-04-24T02:39:35;11.20;;;5.20;;
35128;SDS011;21301;43.626;10.580;2023-04-24T02:42:01;9.77;;;5.03;;
35128;SDS011;21301;43.626;10.580;2023-04-24T02:44:27;12.23;;;5.47;;
35128;SDS011;21301;43.626;10.580;2023-04-24T02:46:52;7.93;;;4.22;;
35128;SDS011;21301;43.626;10.580;2023-04-24T02:49:18;11.63;;;5.40;;
35128;SDS011;21301;43.626;10.580;2023-04-24T02:51:44;12.05;;;5.30;;
35128;SDS011;21301;43.626;10.580;2023-04-24T02:54:10;8.48;;;4.95;;
35128;SDS011;21301;43.626;10.580;2023-04-24T02:56:36;9.02;;;5.22;;
35128;SDS011;21301;43.626;10.580;2023-04-24T02:59:04;16.08;;;5.00;;
35128;SDS011;21301;43.626;10.580;2023-04-24T03:04:46;10.10;;;5.07;;
35128;SDS011;21301;43.626;10.580;2023-04-24T03:07:13;15.52;;;5.90;;
35128;SDS011;21301;43.626;10.580;2023-04-24T03:09:40;10.32;;;5.43;;
35128;SDS011;21301;43.626;10.580;2023-04-24T03:12:06;8.35;;;4.70;;
35128;SDS011;21301;43.626;10.580;2023-04-24T03:14:31;12.02;;;4.97;;
35128;SDS011;21301;43.626;10.580;2023-04-24T03:16:57;7.13;;;4.57;;
35128;SDS011;21301;43.626;10.580;2023-04-24T03:19:23;9.15;;;5.57;;
35128;SDS011;21301;43.626;10.580;2023-04-24T03:22:09;9.70;;;4.78;;
35128;SDS011;21301;43.626;10.580;2023-04-24T03:24:37;10.07;;;5.18;;
35128;SDS011;21301;43.626;10.580;2023-04-24T03:27:03;7.88;;;4.82;;
35128;SDS011;21301;43.626;10.580;2023-04-24T03:29:48;11.68;;;4.78;;
35128;SDS011;21301;43.626;10.580;2023-04-24T03:32:17;10.27;;;5.30;;
35128;SDS011;21301;43.626;10.580;2023-04-24T03:34:45;11.63;;;4.80;;
35128;SDS011;21301;43.626;10.580;2023-04-24T03:37:13;12.70;;;5.88;;
35128;SDS011;21301;43.626;10.580;2023-04-24T03:39:45;8.85;;;4.85;;
35128;SDS011;21301;43.626;10.580;2023-04-24T03:42:12;13.10;;;5.57;;
35128;SDS011;21301;43.626;10.580;2023-04-24T03:44:48;11.88;;;4.28;;
35128;SDS011;21301;43.626;10.580;2023-04-24T03:47:14;9.40;;;4.65;;
35128;SDS011;21301;43.626;10.580;2023-04-24T03:49:41;11.45;;;5.55;;
35128;SDS011;21301;43.626;10.580;2023-04-24T03:52:08;13.63;;;5.10;;
35128;SDS011;21301;43.626;10.580;2023-04-24T03:54:34;11.93;;;5.43;;
35128;SDS011;21301;43.626;10.580;2023-04-24T03:57:00;10.60;;;6.03;;
35128;SDS011;21301;43.626;10.580;2023-04-24T03:59:28;8.75;;;5.53;;
35128;SDS011;21301;43.626;10.580;2023-04-24T04:02:08;10.35;;;6.05;;
35128;SDS011;21301;43.626;10.580;2023-04-24T04:04:33;11.40;;;5.13;;
35128;SDS011;21301;43.626;10.580;2023-04-24T04:06:59;9.60;;;4.95;;
35128;SDS011;21301;43.626;10.580;2023-04-24T04:09:29;10.13;;;4.85;;
35128;SDS011;21301;43.626;10.580;2023-04-24T04:11:55;12.80;;;5.18;;
35128;SDS011;21301;43.626;10.580;2023-04-24T04:14:21;13.15;;;5.93;;
35128;SDS011;21301;43.626;10.580;2023-04-24T04:16:48;9.13;;;5.00;;
35128;SDS011;21301;43.626;10.580;2023-04-24T04:19:14;13.27;;;5.43;;
35128;SDS011;21301;43.626;10.580;2023-04-24T04:21:40;14.15;;;6.25;;
35128;SDS011;21301;43.626;10.580;2023-04-24T04:24:38;11.05;;;5.28;;
35128;SDS011;21301;43.626;10.580;2023-04-24T04:27:06;15.57;;;4.93;;
35128;SDS011;21301;43.626;10.580;2023-04-24T04:29:41;10.77;;;4.30;;
35128;SDS011;21301;43.626;10.580;2023-04-24T04:32:09;9.40;;;3.40;;
35128;SDS011;21301;43.626;10.580;2023-04-24T04:34:35;6.45;;;3.20;;
35128;SDS011;21301;43.626;10.580;2023-04-24T04:37:03;11.80;;;4.05;;
35128;SDS011;21301;43.626;10.580;2023-04-24T04:39:47;13.85;;;4.40;;
35128;SDS011;21301;43.626;10.580;2023-04-24T04:42:19;16.90;;;5.53;;
35128;SDS011;21301;43.626;10.580;2023-04-24T04:44:45;11.52;;;4.85;;
35128;SDS011;21301;43.626;10.580;2023-04-24T04:47:16;23.30;;;5.55;;
35128;SDS011;21301;43.626;10.580;2023-04-24T04:49:43;16.15;;;3.92;;
35128;SDS011;21301;43.626;10.580;2023-04-24T04:52:17;11.07;;;4.28;;
35128;SDS011;21301;43.626;10.580;2023-04-24T04:54:46;14.55;;;4.05;;
35128;SDS011;21301;43.626;10.580;2023-04-24T04:57:12;8.05;;;3.28;;
35128;SDS011;21301;43.626;10.580;2023-04-24T04:59:40;8.27;;;3.65;;
35128;SDS011;21301;43.626;10.580;2023-04-24T05:02:12;10.30;;;3.35;;
35128;SDS011;21301;43.626;10.580;2023-04-24T05:04:38;12.07;;;3.30;;
35128;SDS011;21301;43.626;10.580;2023-04-24T05:07:04;13.27;;;3.42;;
35128;SDS011;21301;43.626;10.580;2023-04-24T05:09:32;9.18;;;2.63;;
35128;SDS011;21301;43.626;10.580;2023-04-24T05:12:04;13.70;;;4.10;;
35128;SDS011;21301;43.626;10.580;2023-04-24T05:14:35;14.85;;;3.95;;
35128;SDS011;21301;43.626;10.580;2023-04-24T05:17:01;16.33;;;3.55;;
35128;SDS011;21301;43.626;10.580;2023-04-24T05:19:29;12.02;;;2.65;;
35128;SDS011;21301;43.626;10.580;2023-04-24T05:21:55;12.80;;;3.05;;
35128;SDS011;21301;43.626;10.580;2023-04-24T05:24:21;10.40;;;2.75;;
35128;SDS011;21301;43.626;10.580;2023-04-24T05:27:20;11.52;;;3.08;;
35128;SDS011;21301;43.626;10.580;2023-04-24T05:29:47;10.07;;;3.00;;
35128;SDS011;21301;43.626;10.580;2023-04-24T05:32:13;15.70;;;3.30;;
35128;SDS011;21301;43.626;10.580;2023-04-24T05:34:39;10.35;;;2.58;;
35128;SDS011;21301;43.626;10.580;2023-04-24T05:37:05;11.20;;;2.63;;
35128;SDS011;21301;43.626;10.580;2023-04-24T05:39:34;10.75;;;3.20;;
35128;SDS011;21301;43.626;10.580;2023-04-24T05:42:00;10.05;;;2.47;;
35128;SDS011;21301;43.626;10.580;2023-04-24T05:44:27;7.97;;;2.28;;
35128;SDS011;21301;43.626;10.580;2023-04-24T05:46:53;23.80;;;3.50;;
35128;SDS011;21301;43.626;10.580;2023-04-24T05:49:20;8.18;;;1.70;;
35128;SDS011;21301;43.626;10.580;2023-04-24T05:51:47;11.75;;;2.00;;
35128;SDS011;21301;43.626;10.580;2023-04-24T05:54:16;10.77;;;1.80;;
35128;SDS011;21301;43.626;10.580;2023-04-24T05:56:42;13.23;;;2.83;;
35128;SDS011;21301;43.626;10.580;2023-04-24T05:59:08;12.55;;;3.42;;
35128;SDS011;21301;43.626;10.580;2023-04-24T06:01:35;9.57;;;2.25;;
35128;SDS011;21301;43.626;10.580;2023-04-24T06:04:09;9.32;;;2.33;;
35128;SDS011;21301;43.626;10.580;2023-04-24T06:06:36;11.15;;;2.40;;
35128;SDS011;21301;43.626;10.580;2023-04-24T06:09:02;12.80;;;2.67;;
35128;SDS011;21301;43.626;10.580;2023-04-24T06:11:29;13.82;;;2.33;;
35128;SDS011;21301;43.626;10.580;2023-04-24T06:13:55;10.85;;;2.25;;
35128;SDS011;21301;43.626;10.580;2023-04-24T06:16:35;12.02;;;2.50;;
35128;SDS011;21301;43.626;10.580;2023-04-24T06:19:09;10.27;;;2.50;;
35128;SDS011;21301;43.626;10.580;2023-04-24T06:21:35;13.88;;;3.17;;
35128;SDS011;21301;43.626;10.580;2023-04-24T06:24:01;5.55;;;1.83;;
35128;SDS011;21301;43.626;10.580;2023-04-24T06:26:30;10.70;;;2.83;;
35128;SDS011;21301;43.626;10.580;2023-04-24T06:28:56;8.18;;;2.10;;
35128;SDS011;21301;43.626;10.580;2023-04-24T06:31:23;13.77;;;3.15;;
35128;SDS011;21301;43.626;10.580;2023-04-24T06:33:49;10.60;;;2.38;;
35128;SDS011;21301;43.626;10.580;2023-04-24T06:36:16;8.50;;;1.58;;
35128;SDS011;21301;43.626;10.580;2023-04-24T06:38:42;7.63;;;2.08;;
35128;SDS011;21301;43.626;10.580;2023-04-24T06:41:08;9.32;;;2.47;;
35128;SDS011;21301;43.626;10.580;2023-04-24T06:43:34;15.85;;;3.05;;
35128;SDS011;21301;43.626;10.580;2023-04-24T06:46:00;10.40;;;2.00;;
35128;SDS011;21301;43.626;10.580;2023-04-24T06:48:28;9.77;;;3.80;;
35128;SDS011;21301;43.626;10.580;2023-04-24T06:50:54;11.38;;;3.05;;
35128;SDS011;21301;43.626;10.580;2023-04-24T06:53:20;12.85;;;2.22;;
35128;SDS011;21301;43.626;10.580;2023-04-24T06:55:46;6.78;;;1.60;;
35128;SDS011;21301;43.626;10.580;2023-04-24T06:58:12;13.43;;;2.75;;
35128;SDS011;21301;43.626;10.580;2023-04-24T07:00:38;13.48;;;2.42;;
35128;SDS011;21301;43.626;10.580;2023-04-24T07:03:04;15.60;;;3.03;;
35128;SDS011;21301;43.626;10.580;2023-04-24T07:05:32;7.32;;;2.20;;
35128;SDS011;21301;43.626;10.580;2023-04-24T07:08:03;17.90;;;2.40;;
35128;SDS011;21301;43.626;10.580;2023-04-24T07:10:29;10.80;;;2.60;;
35128;SDS011;21301;43.626;10.580;2023-04-24T07:12:55;16.15;;;3.08;;
35128;SDS011;21301;43.626;10.580;2023-04-24T07:15:22;13.50;;;1.92;;
35128;SDS011;21301;43.626;10.580;2023-04-24T07:17:48;15.30;;;3.15;;
35128;SDS011;21301;43.626;10.580;2023-04-24T07:20:15;13.02;;;2.60;;
35128;SDS011;21301;43.626;10.580;2023-04-24T07:22:40;9.50;;;1.85;;
35128;SDS011;21301;43.626;10.580;2023-04-24T07:25:07;14.02;;;2.40;;
35128;SDS011;21301;43.626;10.580;2023-04-24T07:27:33;13.35;;;3.38;;
35128;SDS011;21301;43.626;10.580;2023-04-24T07:30:01;14.75;;;3.80;;
35128;SDS011;21301;43.626;10.580;2023-04-24T07:32:27;16.35;;;3.33;;
35128;SDS011;21301;43.626;10.580;2023-04-24T07:34:53;13.73;;;2.17;;
35128;SDS011;21301;43.626;10.580;2023-04-24T07:37:20;27.80;;;8.30;;
35128;SDS011;21301;43.626;10.580;2023-04-24T07:39:46;17.88;;;3.03;;
35128;SDS011;21301;43.626;10.580;2023-04-24T07:42:12;16.85;;;2.65;;
35128;SDS011;21301;43.626;10.580;2023-04-24T07:44:37;13.95;;;3.22;;
35128;SDS011;21301;43.626;10.580;2023-04-24T07:47:03;11.90;;;2.70;;
35128;SDS011;21301;43.626;10.580;2023-04-24T07:49:29;11.02;;;2.92;;
35128;SDS011;21301;43.626;10.580;2023-04-24T07:51:55;16.08;;;3.38;;
35128;SDS011;21301;43.626;10.580;2023-04-24T07:54:21;14.88;;;3.17;;
35128;SDS011;21301;43.626;10.580;2023-04-24T07:56:47;20.45;;;4.07;;
35128;SDS011;21301;43.626;10.580;2023-04-24T07:59:13;13.50;;;3.40;;
35128;SDS011;21301;43.626;10.580;2023-04-24T08:01:39;11.65;;;2.20;;
35128;SDS011;21301;43.626;10.580;2023-04-24T08:04:05;12.07;;;3.55;;
35128;SDS011;21301;43.626;10.580;2023-04-24T08:06:31;12.05;;;3.25;;
35128;SDS011;21301;43.626;10.580;2023-04-24T08:08:57;20.55;;;3.67;;
35128;SDS011;21301;43.626;10.580;2023-04-24T08:11:25;15.82;;;3.33;;
35128;SDS011;21301;43.626;10.580;2023-04-24T08:13:51;15.50;;;2.53;;
35128;SDS011;21301;43.626;10.580;2023-04-24T08:16:17;10.40;;;2.47;;
35128;SDS011;21301;43.626;10.580;2023-04-24T08:18:43;9.40;;;2.58;;
35128;SDS011;21301;43.626;10.580;2023-04-24T08:21:08;8.57;;;2.20;;
35128;SDS011;21301;43.626;10.580;2023-04-24T08:23:34;10.57;;;2.78;;
35128;SDS011;21301;43.626;10.580;2023-04-24T08:26:00;7.78;;;2.80;;
35128;SDS011;21301;43.626;10.580;2023-04-24T08:28:26;15.73;;;4.15;;
35128;SDS011;21301;43.626;10.580;2023-04-24T08:30:52;9.93;;;2.50;;
35128;SDS011;21301;43.626;10.580;2023-04-24T08:33:22;14.93;;;3.67;;
35128;SDS011;21301;43.626;10.580;2023-04-24T08:35:48;8.10;;;2.25;;
35128;SDS011;21301;43.626;10.580;2023-04-24T08:38:15;9.43;;;2.63;;
35128;SDS011;21301;43.626;10.580;2023-04-24T08:40:41;11.05;;;3.90;;
35128;SDS011;21301;43.626;10.580;2023-04-24T08:43:08;13.20;;;2.85;;
35128;SDS011;21301;43.626;10.580;2023-04-24T08:45:35;15.35;;;3.33;;
35128;SDS011;21301;43.626;10.580;2023-04-24T08:48:01;17.17;;;2.72;;
35128;SDS011;21301;43.626;10.580;2023-04-24T08:50:29;10.88;;;2.65;;
35128;SDS011;21301;43.626;10.580;2023-04-24T08:52:56;14.73;;;3.22;;
35128;SDS011;21301;43.626;10.580;2023-04-24T08:55:23;14.15;;;3.40;;
35128;SDS011;21301;43.626;10.580;2023-04-24T08:57:50;6.80;;;2.22;;
35128;SDS011;21301;43.626;10.580;2023-04-24T09:00:18;21.13;;;3.83;;
35128;SDS011;21301;43.626;10.580;2023-04-24T09:02:47;18.15;;;3.88;;
35128;SDS011;21301;43.626;10.580;2023-04-24T09:05:16;18.88;;;3.47;;
35128;SDS011;21301;43.626;10.580;2023-04-24T09:07:44;14.98;;;3.58;;
35128;SDS011;21301;43.626;10.580;2023-04-24T09:10:14;12.18;;;3.30;;
35128;SDS011;21301;43.626;10.580;2023-04-24T09:12:41;14.20;;;2.88;;
35128;SDS011;21301;43.626;10.580;2023-04-24T09:15:07;14.43;;;2.88;;
35128;SDS011;21301;43.626;10.580;2023-04-24T09:17:34;11.95;;;3.10;;
35128;SDS011;21301;43.626;10.580;2023-04-24T09:20:00;13.10;;;3.67;;
35128;SDS011;21301;43.626;10.580;2023-04-24T09:22:29;13.07;;;2.80;;
35128;SDS011;21301;43.626;10.580;2023-04-24T09:25:06;15.68;;;3.10;;
35128;SDS011;21301;43.626;10.580;2023-04-24T09:27:33;16.70;;;3.22;;
35128;SDS011;21301;43.626;10.580;2023-04-24T09:30:00;17.48;;;3.80;;
35128;SDS011;21301;43.626;10.580;2023-04-24T09:32:26;18.50;;;4.35;;
35128;SDS011;21301;43.626;10.580;2023-04-24T09:35:05;16.73;;;3.22;;
35128;SDS011;21301;43.626;10.580;2023-04-24T09:37:34;10.52;;;3.75;;
35128;SDS011;21301;43.626;10.580;2023-04-24T09:40:12;15.13;;;3.13;;
35128;SDS011;21301;43.626;10.580;2023-04-24T09:42:45;14.88;;;2.95;;
35128;SDS011;21301;43.626;10.580;2023-04-24T09:45:16;18.30;;;2.83;;
35128;SDS011;21301;43.626;10.580;2023-04-24T09:47:42;8.90;;;2.15;;
35128;SDS011;21301;43.626;10.580;2023-04-24T09:50:09;15.95;;;2.17;;
35128;SDS011;21301;43.626;10.580;2023-04-24T09:52:37;15.90;;;4.43;;
35128;SDS011;21301;43.626;10.580;2023-04-24T09:55:10;18.80;;;5.95;;
35128;SDS011;21301;43.626;10.580;2023-04-24T09:57:51;12.18;;;4.70;;
35128;SDS011;21301;43.626;10.580;2023-04-24T10:00:22;14.30;;;2.95;;
35128;SDS011;21301;43.626;10.580;2023-04-24T10:02:50;8.60;;;2.58;;
35128;SDS011;21301;43.626;10.580;2023-04-24T10:05:28;14.95;;;2.35;;
35128;SDS011;21301;43.626;10.580;2023-04-24T10:10:29;11.15;;;2.83;;
35128;SDS011;21301;43.626;10.580;2023-04-24T10:12:55;13.43;;;2.65;;
35128;SDS011;21301;43.626;10.580;2023-04-24T10:15:21;13.52;;;3.03;;
35128;SDS011;21301;43.626;10.580;2023-04-24T10:17:48;12.98;;;2.38;;
35128;SDS011;21301;43.626;10.580;2023-04-24T10:20:22;11.98;;;3.05;;
35128;SDS011;21301;43.626;10.580;2023-04-24T10:22:50;17.60;;;3.15;;
35128;SDS011;21301;43.626;10.580;2023-04-24T10:25:24;13.23;;;2.80;;
35128;SDS011;21301;43.626;10.580;2023-04-24T10:27:52;13.05;;;3.20;;
35128;SDS011;21301;43.626;10.580;2023-04-24T10:30:22;17.58;;;3.17;;
35128;SDS011;21301;43.626;10.580;2023-04-24T10:32:48;10.77;;;2.88;;
35128;SDS011;21301;43.626;10.580;2023-04-24T10:35:15;13.15;;;2.88;;
35128;SDS011;21301;43.626;10.580;2023-04-24T10:40:11;14.90;;;2.40;;
35128;SDS011;21301;43.626;10.580;2023-04-24T10:42:41;12.40;;;3.50;;
35128;SDS011;21301;43.626;10.580;2023-04-24T10:45:19;10.68;;;3.05;;
35128;SDS011;21301;43.626;10.580;2023-04-24T10:47:59;11.20;;;3.13;;
35128;SDS011;21301;43.626;10.580;2023-04-24T10:50:29;12.05;;;2.70;;
35128;SDS011;21301;43.626;10.580;2023-04-24T10:53:07;9.85;;;2.53;;
35128;SDS011;21301;43.626;10.580;2023-04-24T10:58:08;13.07;;;2.67;;
35128;SDS011;21301;43.626;10.580;2023-04-24T11:00:39;10.32;;;2.50;;
35128;SDS011;21301;43.626;10.580;2023-04-24T11:03:27;12.13;;;2.40;;
35128;SDS011;21301;43.626;10.580;2023-04-24T11:05:56;11.82;;;2.22;;
35128;SDS011;21301;43.626;10.580;2023-04-24T11:08:32;6.47;;;1.38;;
35128;SDS011;21301;43.626;10.580;2023-04-24T11:11:08;15.90;;;2.90;;
35128;SDS011;21301;43.626;10.580;2023-04-24T11:16:30;12.05;;;2.42;;
35128;SDS011;21301;43.626;10.580;2023-04-24T11:22:02;12.40;;;3.28;;
35128;SDS011;21301;43.626;10.580;2023-04-24T11:27:14;11.48;;;2.22;;
35128;SDS011;21301;43.626;10.580;2023-04-24T11:32:29;11.00;;;2.08;;
35128;SDS011;21301;43.626;10.580;2023-04-24T11:34:59;16.40;;;2.70;;
35128;SDS011;21301;43.626;10.580;2023-04-24T11:37:27;14.15;;;3.25;;
35128;SDS011;21301;43.626;10.580;2023-04-24T11:39:58;13.45;;;3.78;;
35128;SDS011;21301;43.626;10.580;2023-04-24T11:42:24;15.30;;;4.93;;
35128;SDS011;21301;43.626;10.580;2023-04-24T11:44:54;21.80;;;3.75;;
35128;SDS011;21301;43.626;10.580;2023-04-24T11:47:38;12.98;;;2.60;;
35128;SDS011;21301;43.626;10.580;2023-04-24T11:50:05;12.63;;;3.13;;
35128;SDS011;21301;43.626;10.580;2023-04-24T11:52:33;17.30;;;3.38;;
35128;SDS011;21301;43.626;10.580;2023-04-24T11:55:03;12.85;;;2.33;;
35128;SDS011;21301;43.626;10.580;2023-04-24T11:57:29;14.70;;;2.92;;
35128;SDS011;21301;43.626;10.580;2023-04-24T11:59:59;8.77;;;2.05;;
35128;SDS011;21301;43.626;10.580;2023-04-24T12:02:26;13.55;;;2.67;;
35128;SDS011;21301;43.626;10.580;2023-04-24T12:04:53;17.42;;;3.45;;
35128;SDS011;21301;43.626;10.580;2023-04-24T12:07:19;18.48;;;2.47;;
35128;SDS011;21301;43.626;10.580;2023-04-24T12:09:49;13.27;;;2.83;;
35128;SDS011;21301;43.626;10.580;2023-04-24T12:12:23;12.35;;;2.67;;
35128;SDS011;21301;43.626;10.580;2023-04-24T12:14:57;15.35;;;2.83;;
35128;SDS011;21301;43.626;10.580;2023-04-24T12:17:24;10.43;;;2.75;;
35128;SDS011;21301;43.626;10.580;2023-04-24T12:20:02;10.13;;;2.60;;
35128;SDS011;21301;43.626;10.580;2023-04-24T12:22:49;12.90;;;3.63;;
35128;SDS011;21301;43.626;10.580;2023-04-24T12:25:20;12.55;;;2.03;;
35128;SDS011;21301;43.626;10.580;2023-04-24T12:27:52;14.32;;;2.90;;
35128;SDS011;21301;43.626;10.580;2023-04-24T12:31:09;10.50;;;2.28;;
35128;SDS011;21301;43.626;10.580;2023-04-24T12:33:28;12.43;;;2.20;;
35128;SDS011;21301;43.626;10.580;2023-04-24T12:35:59;14.32;;;2.65;;
35128;SDS011;21301;43.626;10.580;2023-04-24T12:38:27;10.18;;;3.05;;
35128;SDS011;21301;43.626;10.580;2023-04-24T12:41:02;12.18;;;2.90;;
35128;SDS011;21301;43.626;10.580;2023-04-24T12:43:34;8.70;;;2.10;;
35128;SDS011;21301;43.626;10.580;2023-04-24T12:46:01;21.50;;;3.70;;
35128;SDS011;21301;43.626;10.580;2023-04-24T12:48:27;12.23;;;3.95;;
35128;SDS011;21301;43.626;10.580;2023-04-24T12:50:54;16.05;;;3.95;;
35128;SDS011;21301;43.626;10.580;2023-04-24T12:53:21;17.45;;;2.30;;
35128;SDS011;21301;43.626;10.580;2023-04-24T12:55:47;13.88;;;2.60;;
35128;SDS011;21301;43.626;10.580;2023-04-24T12:58:20;15.27;;;3.13;;
35128;SDS011;21301;43.626;10.580;2023-04-24T13:00:47;13.35;;;2.67;;
35128;SDS011;21301;43.626;10.580;2023-04-24T13:03:13;16.42;;;3.47;;
35128;SDS011;21301;43.626;10.580;2023-04-24T13:05:39;16.77;;;3.28;;
35128;SDS011;21301;43.626;10.580;2023-04-24T13:08:06;9.15;;;2.58;;
35128;SDS011;21301;43.626;10.580;2023-04-24T13:10:32;11.95;;;2.67;;
35128;SDS011;21301;43.626;10.580;2023-04-24T13:12:57;18.77;;;3.15;;
35128;SDS011;21301;43.626;10.580;2023-04-24T13:15:23;9.98;;;2.47;;
35128;SDS011;21301;43.626;10.580;2023-04-24T13:17:50;11.30;;;3.00;;
35128;SDS011;21301;43.626;10.580;2023-04-24T13:20:16;14.15;;;4.20;;
35128;SDS011;21301;43.626;10.580;2023-04-24T13:22:42;10.60;;;2.75;;
35128;SDS011;21301;43.626;10.580;2023-04-24T13:25:08;12.40;;;3.10;;
35128;SDS011;21301;43.626;10.580;2023-04-24T13:27:34;9.35;;;2.53;;
35128;SDS011;21301;43.626;10.580;2023-04-24T13:30:00;13.68;;;3.15;;
35128;SDS011;21301;43.626;10.580;2023-04-24T13:32:26;15.52;;;2.90;;
35128;SDS011;21301;43.626;10.580;2023-04-24T13:34:52;16.00;;;3.13;;
35128;SDS011;21301;43.626;10.580;2023-04-24T13:37:18;13.30;;;3.53;;
35128;SDS011;21301;43.626;10.580;2023-04-24T13:39:44;18.63;;;3.40;;
35128;SDS011;21301;43.626;10.580;2023-04-24T13:42:10;18.00;;;2.85;;
35128;SDS011;21301;43.626;10.580;2023-04-24T13:44:37;16.30;;;3.70;;
35128;SDS011;21301;43.626;10.580;2023-04-24T13:47:03;15.48;;;3.25;;
35128;SDS011;21301;43.626;10.580;2023-04-24T13:49:29;14.57;;;3.40;;
35128;SDS011;21301;43.626;10.580;2023-04-24T13:51:55;12.50;;;3.60;;
35128;SDS011;21301;43.626;10.580;2023-04-24T13:54:21;15.10;;;2.67;;
35128;SDS011;21301;43.626;10.580;2023-04-24T13:56:48;13.18;;;2.83;;
35128;SDS011;21301;43.626;10.580;2023-04-24T13:59:14;16.00;;;3.40;;
35128;SDS011;21301;43.626;10.580;2023-04-24T14:01:40;8.15;;;1.90;;
35128;SDS011;21301;43.626;10.580;2023-04-24T14:04:06;17.23;;;2.63;;
35128;SDS011;21301;43.626;10.580;2023-04-24T14:06:32;12.05;;;2.88;;
35128;SDS011;21301;43.626;10.580;2023-04-24T14:08:57;15.15;;;2.55;;
35128;SDS011;21301;43.626;10.580;2023-04-24T14:11:23;12.55;;;3.40;;
35128;SDS011;21301;43.626;10.580;2023-04-24T14:13:51;12.15;;;2.90;;
35128;SDS011;21301;43.626;10.580;2023-04-24T14:16:16;18.30;;;3.55;;
35128;SDS011;21301;43.626;10.580;2023-04-24T14:18:42;22.85;;;4.15;;
35128;SDS011;21301;43.626;10.580;2023-04-24T14:21:08;11.80;;;3.17;;
35128;SDS011;21301;43.626;10.580;2023-04-24T14:23:34;9.23;;;2.60;;
35128;SDS011;21301;43.626;10.580;2023-04-24T14:26:00;14.13;;;3.15;;
35128;SDS011;21301;43.626;10.580;2023-04-24T14:28:26;10.57;;;3.47;;
35128;SDS011;21301;43.626;10.580;2023-04-24T14:30:52;16.70;;;2.58;;
35128;SDS011;21301;43.626;10.580;2023-04-24T14:33:18;10.75;;;2.75;;
35128;SDS011;21301;43.626;10.580;2023-04-24T14:35:44;11.25;;;2.78;;
35128;SDS011;21301;43.626;10.580;2023-04-24T14:38:11;16.35;;;3.53;;
35128;SDS011;21301;43.626;10.580;2023-04-24T14:40:37;13.32;;;3.33;;
35128;SDS011;21301;43.626;10.580;2023-04-24T14:43:03;12.55;;;2.17;;
35128;SDS011;21301;43.626;10.580;2023-04-24T14:45:29;14.38;;;3.13;;
35128;SDS011;21301;43.626;10.580;2023-04-24T14:47:55;16.58;;;3.55;;
35128;SDS011;21301;43.626;10.580;2023-04-24T14:50:21;18.15;;;4.47;;